Time;durP1;ratioP1;P1;durP2;ratioP2;P2;SDS_P1;SDS_P2;PMS_P1;PMS_P2;Temp;Humidity;BMP_temperature;BMP_pressure;BME280_temperature;BME280_humidity;BME280_pressure;Samples;Min_cycle;Max_cycle;Signal;HPM_P1;HPM_P2
2022/11/30 00:02:19;;;;;;;186.10;53.67;;;-0.50;72.60;;;;;;4966418;28;114270;-82
2022/11/30 00:04:46;;;;;;;143.90;47.85;;;-0.50;72.50;;;;;;4963461;28;115559;-81
2022/11/30 00:07:13;;;;;;;125.03;43.88;;;-0.50;72.40;;;;;;4931444;28;118106;-81
2022/11/30 00:09:41;;;;;;;151.52;53.55;;;-0.50;72.60;;;;;;4948411;28;114764;-82
2022/11/30 00:12:08;;;;;;;127.55;48.90;;;-0.50;72.60;;;;;;4931987;28;114805;-82
2022/11/30 00:14:35;;;;;;;143.95;50.75;;;-0.40;72.50;;;;;;4963067;28;115537;-82
2022/11/30 00:17:02;;;;;;;138.98;50.08;;;-0.30;72.60;;;;;;4963461;28;115252;-81
2022/11/30 00:19:29;;;;;;;120.28;45.70;;;-0.30;72.50;;;;;;4963643;28;114412;-82
2022/11/30 00:21:56;;;;;;;112.45;43.35;;;-0.20;72.30;;;;;;4970004;28;114421;-82
2022/11/30 00:24:23;;;;;;;134.40;49.15;;;-0.20;72.20;;;;;;4981844;28;115063;-82
2022/11/30 00:26:53;;;;;;;137.00;47.33;;;-0.20;72.20;;;;;;4962969;28;117675;-82
2022/11/30 00:29:22;;;;;;;126.63;43.72;;;-0.10;72.30;;;;;;4962905;28;114354;-82
2022/11/30 00:31:49;;;;;;;139.45;46.72;;;-0.20;72.00;;;;;;4963456;28;115610;-82
2022/11/30 00:34:16;;;;;;;144.65;45.92;;;-0.20;71.80;;;;;;4979862;28;115125;-82
2022/11/30 00:36:43;;;;;;;127.05;45.65;;;-0.30;71.70;;;;;;4964555;28;114816;-81
2022/11/30 00:39:10;;;;;;;116.70;41.92;;;-0.50;71.80;;;;;;4964490;28;114647;-81
2022/11/30 00:41:37;;;;;;;124.82;43.05;;;-0.50;72.00;;;;;;4964210;28;114774;-82
2022/11/30 00:44:05;;;;;;;116.28;41.28;;;-0.60;72.10;;;;;;4974906;28;115527;-82
2022/11/30 00:46:32;;;;;;;128.82;41.80;;;-0.60;72.10;;;;;;4977362;28;117206;-82
2022/11/30 00:48:59;;;;;;;116.35;41.20;;;-0.70;72.20;;;;;;4965112;28;114858;-82
2022/11/30 00:51:27;;;;;;;137.40;43.70;;;-0.70;72.40;;;;;;4964500;28;114531;-81
2022/11/30 00:53:54;;;;;;;127.20;44.42;;;-0.70;72.40;;;;;;4959659;28;116221;-81
2022/11/30 00:56:21;;;;;;;129.73;44.03;;;-0.60;72.60;;;;;;4967593;28;114754;-81
2022/11/30 00:58:51;;;;;;;114.70;39.65;;;-0.60;72.70;;;;;;4985488;28;114645;-80
2022/11/30 01:01:18;;;;;;;121.85;42.45;;;-0.50;72.70;;;;;;4978293;28;114420;-81
2022/11/30 01:03:45;;;;;;;133.10;44.00;;;-0.50;72.70;;;;;;4946406;28;115292;-81
2022/11/30 01:06:12;;;;;;;152.32;48.13;;;-0.40;72.50;;;;;;4964718;28;114689;-79
2022/11/30 01:08:39;;;;;;;157.85;48.35;;;-0.50;72.20;;;;;;4965190;28;114404;-80
2022/11/30 01:11:19;;;;;;;158.25;50.80;;;-0.60;72.30;;;;;;4961318;28;114776;-81
2022/11/30 01:13:46;;;;;;;143.50;46.10;;;-0.70;72.50;;;;;;4963567;28;117252;-80
2022/11/30 01:16:21;;;;;;;133.77;44.60;;;-0.80;72.30;;;;;;4967158;28;118782;-79
2022/11/30 01:18:48;;;;;;;123.35;40.45;;;-0.80;72.40;;;;;;4967973;28;116114;-80
2022/11/30 01:21:18;;;;;;;141.68;44.65;;;-0.80;72.60;;;;;;4968386;28;114317;-81
2022/11/30 01:23:45;;;;;;;137.75;48.80;;;-0.90;72.60;;;;;;4950940;28;117822;-81
2022/11/30 01:26:13;;;;;;;131.68;46.03;;;-0.90;72.80;;;;;;4967932;28;115202;-81
2022/11/30 01:28:40;;;;;;;108.10;36.78;;;-0.90;72.80;;;;;;4947770;28;114462;-81
2022/11/30 01:31:11;;;;;;;124.95;41.20;;;-1.00;72.80;;;;;;4968113;28;114424;-79
2022/11/30 01:33:41;;;;;;;123.45;40.15;;;-1.00;72.90;;;;;;4979248;28;117059;-81
2022/11/30 01:36:16;;;;;;;148.50;48.17;;;-1.10;72.90;;;;;;4986996;28;115617;-80
2022/11/30 01:38:48;;;;;;;134.10;44.80;;;-1.20;73.10;;;;;;4987329;28;114397;-80
2022/11/30 01:41:27;;;;;;;132.60;43.38;;;-1.20;73.30;;;;;;4988655;28;114417;-80
2022/11/30 01:43:57;;;;;;;165.98;50.55;;;-1.20;73.30;;;;;;4955276;28;115516;-81
2022/11/30 01:46:38;;;;;;;146.93;45.78;;;-1.20;73.30;;;;;;4950866;28;114530;-81
2022/11/30 01:49:09;;;;;;;151.90;45.35;;;-1.20;73.40;;;;;;4947699;28;114754;-81
2022/11/30 01:51:57;;;;;;;146.63;44.92;;;-1.20;73.40;;;;;;4968915;28;114333;-80
2022/11/30 01:54:28;;;;;;;119.70;41.83;;;-1.20;73.60;;;;;;4966011;28;115152;-81
2022/11/30 01:56:59;;;;;;;108.82;39.17;;;-1.20;73.50;;;;;;4917883;28;116369;-80
2022/11/30 01:59:26;;;;;;;117.13;44.10;;;-1.10;73.70;;;;;;4951799;28;114615;-80
2022/11/30 02:01:56;;;;;;;129.95;39.35;;;-1.00;73.70;;;;;;4932737;28;114492;-80
2022/11/30 02:04:29;;;;;;;154.55;48.10;;;-0.90;73.60;;;;;;4932483;28;115151;-81
2022/11/30 02:06:57;;;;;;;111.03;41.92;;;-0.90;73.50;;;;;;4967450;28;114676;-80
2022/11/30 02:09:24;;;;;;;124.80;42.58;;;-0.90;73.30;;;;;;4947577;28;114405;-80
2022/11/30 02:11:51;;;;;;;106.97;41.53;;;-0.90;73.40;;;;;;4946210;28;116031;-80
2022/11/30 02:14:38;;;;;;;139.25;43.53;;;-0.90;73.50;;;;;;4986950;28;115111;-81
2022/11/30 02:17:35;;;;;;;129.60;41.65;;;-0.80;73.60;;;;;;4985991;28;114699;-81
2022/11/30 02:20:30;;;;;;;107.32;38.95;;;-0.80;73.40;;;;;;4959614;28;114439;-80
2022/11/30 02:23:50;;;;;;;124.47;40.67;;;-0.80;73.30;;;;;;4983072;28;118394;-79
2022/11/30 02:27:09;;;;;;;125.05;43.33;;;-0.90;73.20;;;;;;4984634;28;115109;-80
2022/11/30 02:29:41;;;;;;;112.72;40.10;;;-1.00;73.30;;;;;;4957647;28;114778;-80
2022/11/30 02:32:25;;;;;;;105.10;36.38;;;-1.00;73.40;;;;;;4949892;28;114592;-80
2022/11/30 02:34:52;;;;;;;108.75;40.15;;;-1.00;73.60;;;;;;4966407;28;114424;-81
2022/11/30 02:37:19;;;;;;;116.53;38.78;;;-0.90;73.60;;;;;;4933009;28;119873;-80
2022/11/30 02:39:46;;;;;;;113.55;40.53;;;-0.80;73.70;;;;;;4966010;28;116967;-81
2022/11/30 02:42:13;;;;;;;124.93;43.80;;;-0.80;73.70;;;;;;4966609;28;114426;-81
2022/11/30 02:44:59;;;;;;;133.25;47.60;;;-0.60;73.40;;;;;;4965819;28;114697;-81
2022/11/30 02:47:47;;;;;;;127.05;41.55;;;-0.50;73.30;;;;;;4965043;28;115452;-81
2022/11/30 02:50:17;;;;;;;122.65;43.13;;;-0.50;73.00;;;;;;4966320;28;114565;-81
2022/11/30 02:52:49;;;;;;;117.53;42.67;;;-0.70;73.10;;;;;;4948307;28;114710;-81
2022/11/30 02:55:17;;;;;;;125.85;45.60;;;-0.70;73.20;;;;;;4934116;28;114367;-81
2022/11/30 02:57:45;;;;;;;121.18;43.15;;;-0.70;73.30;;;;;;4950437;28;116197;-81
2022/11/30 03:00:13;;;;;;;119.35;41.47;;;-0.60;73.40;;;;;;4965787;28;119479;-80
2022/11/30 03:02:40;;;;;;;106.25;39.55;;;-0.60;73.30;;;;;;4966611;28;114585;-81
2022/11/30 03:05:08;;;;;;;119.25;42.42;;;-0.60;73.30;;;;;;4966575;28;114701;-80
2022/11/30 03:07:35;;;;;;;137.32;46.10;;;-0.60;73.40;;;;;;4965741;28;115017;-81
2022/11/30 03:10:04;;;;;;;142.80;44.88;;;-0.50;73.40;;;;;;4949526;28;117678;-80
2022/11/30 03:12:31;;;;;;;100.43;35.10;;;-0.60;73.10;;;;;;4966301;28;114414;-81
2022/11/30 03:14:58;;;;;;;128.13;46.78;;;-0.60;73.00;;;;;;4966349;28;114435;-80
2022/11/30 03:17:25;;;;;;;156.27;53.78;;;-0.70;73.00;;;;;;4949359;28;118609;-80
2022/11/30 03:19:52;;;;;;;125.28;46.80;;;-0.80;72.90;;;;;;4946404;28;116272;-80
2022/11/30 03:22:19;;;;;;;135.80;48.67;;;-0.80;73.20;;;;;;4948672;28;114643;-80
2022/11/30 03:24:47;;;;;;;131.93;51.40;;;-0.80;73.40;;;;;;4966960;28;114496;-81
2022/11/30 03:27:14;;;;;;;140.35;55.97;;;-0.70;73.20;;;;;;4960292;28;115142;-80
2022/11/30 03:29:41;;;;;;;123.25;46.72;;;-0.60;73.20;;;;;;4966946;28;118058;-81
2022/11/30 03:32:09;;;;;;;145.10;55.00;;;-0.50;73.20;;;;;;4966629;28;114132;-80
2022/11/30 03:34:36;;;;;;;134.50;53.40;;;-0.40;73.00;;;;;;4965700;28;114716;-80
2022/11/30 03:37:03;;;;;;;173.13;59.13;;;-0.40;72.90;;;;;;4964962;28;115077;-80
2022/11/30 03:39:30;;;;;;;124.63;50.55;;;-0.40;72.60;;;;;;4949750;28;114749;-80
2022/11/30 03:41:57;;;;;;;134.90;52.55;;;-0.60;72.80;;;;;;4974278;28;114290;-81
2022/11/30 03:44:24;;;;;;;137.85;53.90;;;-0.50;73.10;;;;;;4967382;28;114785;-81
2022/11/30 03:46:51;;;;;;;137.63;56.10;;;-0.50;73.20;;;;;;4967939;28;115032;-81
2022/11/30 03:49:19;;;;;;;124.53;47.55;;;-0.40;73.10;;;;;;4964778;28;114702;-82
2022/11/30 03:51:46;;;;;;;140.57;52.53;;;-0.40;72.90;;;;;;4967815;28;114320;-80
2022/11/30 03:54:14;;;;;;;127.80;47.50;;;-0.30;73.00;;;;;;4967426;28;114245;-82
2022/11/30 03:56:41;;;;;;;120.45;45.47;;;-0.30;72.90;;;;;;4939906;28;115732;-82
2022/11/30 03:59:08;;;;;;;123.75;47.45;;;-0.30;72.70;;;;;;4965299;28;114669;-81
2022/11/30 04:01:42;;;;;;;124.43;47.08;;;-0.30;72.80;;;;;;4965212;28;114544;-82
2022/11/30 04:04:10;;;;;;;94.87;32.80;;;-0.30;72.70;;;;;;4949902;28;116596;-81
2022/11/30 04:06:39;;;;;;;89.20;37.33;;;-0.40;72.50;;;;;;4964760;28;115573;-82
2022/11/30 04:09:06;;;;;;;103.00;41.15;;;-0.50;72.40;;;;;;4964669;28;115310;-82
2022/11/30 04:11:34;;;;;;;92.70;35.15;;;-0.60;72.60;;;;;;4966214;28;114325;-81
2022/11/30 04:14:01;;;;;;;92.13;35.88;;;-0.60;72.70;;;;;;4966843;28;114363;-81
2022/11/30 04:16:29;;;;;;;94.07;35.90;;;-0.70;72.80;;;;;;4965544;28;115094;-81
2022/11/30 04:18:56;;;;;;;99.10;36.05;;;-0.80;72.80;;;;;;4969328;28;116243;-81
2022/11/30 04:21:23;;;;;;;102.88;37.53;;;-0.90;72.90;;;;;;4966325;28;114468;-81
2022/11/30 04:23:51;;;;;;;96.38;36.30;;;-0.90;73.10;;;;;;4966462;28;114148;-82
2022/11/30 04:26:18;;;;;;;105.85;38.78;;;-0.90;73.30;;;;;;4964410;28;115065;-81
2022/11/30 04:28:46;;;;;;;106.97;40.25;;;-0.90;73.30;;;;;;4963862;28;114536;-81
2022/11/30 04:31:13;;;;;;;95.55;33.50;;;-0.80;73.20;;;;;;4948982;28;114279;-81
2022/11/30 04:33:40;;;;;;;103.20;36.67;;;-0.90;73.10;;;;;;4966362;28;114577;-82
2022/11/30 04:36:17;;;;;;;89.63;34.33;;;-0.90;73.00;;;;;;4962329;28;115664;-81
2022/11/30 04:38:44;;;;;;;95.82;36.50;;;-1.00;73.40;;;;;;4948470;28;114676;-81
2022/11/30 04:41:11;;;;;;;129.38;42.65;;;-0.90;73.50;;;;;;4964208;28;114541;-81
2022/11/30 04:43:39;;;;;;;106.85;38.78;;;-0.90;73.50;;;;;;4965186;28;114583;-81
2022/11/30 04:46:06;;;;;;;95.88;36.88;;;-0.90;73.40;;;;;;4964858;28;114615;-81
2022/11/30 04:48:33;;;;;;;127.35;42.67;;;-0.90;73.50;;;;;;4963617;28;114674;-81
2022/11/30 04:51:06;;;;;;;129.48;46.95;;;-0.80;73.50;;;;;;4930693;28;114571;-81
2022/11/30 04:53:34;;;;;;;109.20;39.08;;;-0.80;73.50;;;;;;4979856;28;114220;-80
2022/11/30 04:56:09;;;;;;;111.28;39.78;;;-0.90;73.30;;;;;;4966101;28;115260;-81
2022/11/30 04:58:37;;;;;;;102.75;38.50;;;-0.90;73.30;;;;;;4960768;28;115151;-81
2022/11/30 05:01:05;;;;;;;104.75;38.40;;;-1.00;73.30;;;;;;4984496;28;115334;-82
2022/11/30 05:03:32;;;;;;;110.05;39.88;;;-0.90;73.40;;;;;;4983461;28;114421;-81
2022/11/30 05:06:00;;;;;;;100.90;38.50;;;-0.90;73.50;;;;;;4983236;28;115356;-82
2022/11/30 05:08:27;;;;;;;97.13;35.38;;;-0.90;73.50;;;;;;4983999;28;117202;-81
2022/11/30 05:10:54;;;;;;;92.00;34.83;;;-0.80;73.70;;;;;;4944664;28;115710;-82
2022/11/30 05:13:24;;;;;;;108.35;40.03;;;-0.80;73.60;;;;;;4985504;28;114226;-83
2022/11/30 05:15:52;;;;;;;115.53;40.05;;;-0.70;73.50;;;;;;4962403;28;118353;-82
2022/11/30 05:18:23;;;;;;;114.13;41.53;;;-0.80;73.30;;;;;;4967224;28;114794;-81
2022/11/30 05:20:50;;;;;;;111.55;40.95;;;-0.90;73.50;;;;;;4984857;28;114363;-82
2022/11/30 05:23:18;;;;;;;128.43;44.80;;;-0.90;73.60;;;;;;4915679;28;114492;-81
2022/11/30 05:25:45;;;;;;;122.65;42.58;;;-0.90;73.80;;;;;;4964230;28;115063;-82
2022/11/30 05:28:13;;;;;;;103.93;38.55;;;-0.80;73.80;;;;;;4964479;28;114910;-81
2022/11/30 05:30:40;;;;;;;110.43;42.53;;;-0.90;73.50;;;;;;4931911;28;114527;-81
2022/11/30 05:33:08;;;;;;;115.97;42.28;;;-0.90;73.40;;;;;;4931765;28;114525;-81
2022/11/30 05:35:35;;;;;;;108.45;41.25;;;-1.00;73.60;;;;;;4962479;28;115737;-82
2022/11/30 05:38:02;;;;;;;106.28;40.90;;;-0.90;73.70;;;;;;4964589;28;114770;-83
2022/11/30 05:40:31;;;;;;;110.10;42.00;;;-0.90;73.70;;;;;;4947176;28;114645;-83
2022/11/30 05:42:59;;;;;;;93.00;35.67;;;-0.90;73.80;;;;;;4963502;28;114678;-82
2022/11/30 05:45:27;;;;;;;125.60;47.08;;;-0.80;73.50;;;;;;4946499;28;115144;-82
2022/11/30 05:47:54;;;;;;;113.20;44.53;;;-0.90;73.20;;;;;;4963876;28;114580;-82
2022/11/30 05:50:21;;;;;;;115.10;42.65;;;-1.00;73.20;;;;;;4964896;28;114665;-83
2022/11/30 05:52:55;;;;;;;120.47;45.72;;;-1.10;73.20;;;;;;4961268;28;115667;-82
2022/11/30 05:55:23;;;;;;;95.22;35.63;;;-1.10;73.30;;;;;;4963246;28;115672;-82
2022/11/30 05:57:50;;;;;;;105.57;39.38;;;-1.20;73.30;;;;;;4945347;28;115125;-82
2022/11/30 06:00:18;;;;;;;103.50;40.20;;;-1.30;73.50;;;;;;4964384;28;114470;-81
2022/11/30 06:02:45;;;;;;;101.80;40.85;;;-1.20;73.70;;;;;;4966010;28;115100;-82
2022/11/30 06:05:13;;;;;;;95.85;34.65;;;-1.20;73.60;;;;;;4966601;28;115572;-80
2022/11/30 06:07:40;;;;;;;92.88;37.70;;;-1.20;73.50;;;;;;4966722;28;114750;-80
2022/11/30 06:10:08;;;;;;;122.57;40.20;;;-1.30;73.40;;;;;;4950841;28;114482;-80
2022/11/30 06:12:35;;;;;;;98.45;38.70;;;-1.30;73.50;;;;;;4966860;28;116273;-80
2022/11/30 06:15:03;;;;;;;99.05;42.08;;;-1.30;73.50;;;;;;4966373;28;116279;-80
2022/11/30 06:17:30;;;;;;;114.97;41.72;;;-1.20;73.70;;;;;;4961528;28;117390;-80
2022/11/30 06:19:57;;;;;;;96.82;39.30;;;-1.20;73.80;;;;;;4986807;28;114659;-81
2022/11/30 06:22:24;;;;;;;105.57;41.53;;;-1.10;73.90;;;;;;4987087;28;114378;-81
2022/11/30 06:24:52;;;;;;;120.15;40.65;;;-1.10;73.90;;;;;;4968097;28;115118;-81
2022/11/30 06:27:19;;;;;;;113.00;43.80;;;-1.10;73.70;;;;;;4982953;28;114582;-80
2022/11/30 06:29:46;;;;;;;106.13;39.47;;;-1.10;73.50;;;;;;4967683;28;114479;-81
2022/11/30 06:32:13;;;;;;;102.03;38.63;;;-1.30;73.60;;;;;;4966606;28;114505;-80
2022/11/30 06:34:40;;;;;;;102.63;37.70;;;-1.30;73.70;;;;;;4969325;28;115262;-81
2022/11/30 06:37:07;;;;;;;103.30;39.17;;;-1.30;74.00;;;;;;4986593;28;115222;-81
2022/11/30 06:39:35;;;;;;;104.93;39.88;;;-1.30;74.30;;;;;;4986856;28;114516;-81
2022/11/30 06:42:22;;;;;;;99.05;37.88;;;-1.10;74.30;;;;;;4971948;28;114388;-81
2022/11/30 06:44:49;;;;;;;99.55;39.42;;;-1.00;74.20;;;;;;4966422;28;115408;-81
2022/11/30 06:47:17;;;;;;;111.80;41.40;;;-0.90;74.20;;;;;;4966238;28;115325;-81
2022/11/30 06:49:44;;;;;;;78.75;32.40;;;-0.80;74.10;;;;;;4972058;28;115114;-81
2022/11/30 06:52:11;;;;;;;91.05;35.70;;;-0.70;73.80;;;;;;4970793;28;114358;-81
2022/11/30 06:54:38;;;;;;;90.93;35.95;;;-0.80;73.50;;;;;;4964977;28;115084;-82
2022/11/30 06:57:06;;;;;;;90.30;35.78;;;-0.90;73.40;;;;;;4965098;28;115388;-81
2022/11/30 06:59:41;;;;;;;105.47;41.55;;;-0.90;73.60;;;;;;4935132;28;114550;-81
2022/11/30 07:02:12;;;;;;;103.95;38.63;;;-0.90;73.60;;;;;;4966299;28;114721;-81
2022/11/30 07:04:44;;;;;;;97.25;36.70;;;-0.90;73.60;;;;;;4965058;28;115136;-81
2022/11/30 07:07:16;;;;;;;82.70;33.78;;;-0.90;73.70;;;;;;4970867;28;115509;-82
2022/11/30 07:09:44;;;;;;;80.82;33.45;;;-0.90;73.80;;;;;;4979467;28;114341;-81
2022/11/30 07:12:14;;;;;;;88.25;36.28;;;-0.90;73.60;;;;;;4981819;28;114630;-81
2022/11/30 07:14:41;;;;;;;86.32;33.15;;;-0.90;73.50;;;;;;4966089;28;115687;-81
2022/11/30 07:17:08;;;;;;;89.05;34.05;;;-0.90;73.60;;;;;;4963741;28;114821;-81
2022/11/30 07:19:36;;;;;;;78.28;35.35;;;-0.80;73.70;;;;;;4968304;28;114339;-82
2022/11/30 07:22:03;;;;;;;81.50;34.30;;;-0.80;73.90;;;;;;4967992;28;114558;-81
2022/11/30 07:27:16;;;;;;;91.32;42.30;;;-0.50;74.00;;;;;;4965979;28;114617;-82
2022/11/30 07:29:43;;;;;;;82.63;36.08;;;-0.50;73.60;;;;;;4965639;28;114519;-82
2022/11/30 07:32:10;;;;;;;81.45;35.00;;;-0.50;73.20;;;;;;4965574;28;114904;-82
2022/11/30 07:34:38;;;;;;;83.82;34.67;;;-0.60;73.10;;;;;;4964823;28;116167;-82
2022/11/30 07:37:05;;;;;;;85.60;34.33;;;-0.60;73.20;;;;;;4965949;28;115881;-82
2022/11/30 07:39:32;;;;;;;88.30;33.72;;;-0.60;73.20;;;;;;4948569;28;114516;-81
2022/11/30 07:41:59;;;;;;;71.20;29.63;;;-0.70;73.10;;;;;;4966282;28;114906;-82
2022/11/30 07:44:27;;;;;;;86.05;34.30;;;-0.80;73.10;;;;;;4966483;28;115019;-82
2022/11/30 07:46:54;;;;;;;80.53;32.38;;;-0.80;73.00;;;;;;4964705;28;116587;-82
2022/11/30 07:49:21;;;;;;;83.55;33.70;;;-0.80;73.20;;;;;;4965909;28;114629;-81
2022/11/30 07:51:48;;;;;;;75.50;33.45;;;-0.80;73.30;;;;;;4966213;28;114365;-81
2022/11/30 07:54:15;;;;;;;76.43;32.40;;;-0.80;73.40;;;;;;4965021;28;115652;-81
2022/11/30 07:56:43;;;;;;;71.55;28.40;;;-0.80;73.40;;;;;;4965597;28;114608;-81
2022/11/30 07:59:10;;;;;;;75.35;31.40;;;-0.80;73.30;;;;;;4965662;28;114293;-79
2022/11/30 08:01:37;;;;;;;78.60;33.88;;;-0.80;73.30;;;;;;4964990;28;114418;-80
2022/11/30 08:04:12;;;;;;;75.75;31.38;;;-0.80;73.50;;;;;;4964257;28;115192;-81
2022/11/30 08:06:42;;;;;;;69.35;30.33;;;-0.70;73.50;;;;;;4963899;28;114718;-81
2022/11/30 08:09:11;;;;;;;82.32;34.50;;;-0.70;73.20;;;;;;4965497;28;114385;-81
2022/11/30 08:11:47;;;;;;;84.30;33.22;;;-0.70;73.20;;;;;;4973619;28;114651;-80
2022/11/30 08:14:17;;;;;;;88.82;36.78;;;-0.70;73.10;;;;;;4953733;28;115454;-80
2022/11/30 08:16:44;;;;;;;79.97;35.33;;;-0.80;73.10;;;;;;4973170;28;114659;-80
2022/11/30 08:19:11;;;;;;;92.90;36.33;;;-0.80;73.20;;;;;;4973054;28;114764;-81
2022/11/30 08:21:38;;;;;;;86.00;34.03;;;-0.70;73.40;;;;;;4975928;28;114502;-81
2022/11/30 08:24:08;;;;;;;87.50;35.78;;;-0.70;73.30;;;;;;4973212;28;115125;-81
2022/11/30 08:26:35;;;;;;;90.13;37.20;;;-0.70;73.40;;;;;;4956260;28;114717;-81
2022/11/30 08:29:03;;;;;;;85.05;35.55;;;-0.60;73.30;;;;;;4978824;28;116328;-81
2022/11/30 08:31:33;;;;;;;92.10;37.05;;;-0.60;73.30;;;;;;4963370;28;114453;-82
2022/11/30 08:34:08;;;;;;;87.45;37.03;;;-0.50;73.50;;;;;;4962039;28;115032;-82
2022/11/30 08:36:35;;;;;;;87.72;35.28;;;-0.50;73.30;;;;;;4945957;28;114753;-81
2022/11/30 08:39:03;;;;;;;92.88;35.30;;;-0.50;73.10;;;;;;4963217;28;114898;-81
2022/11/30 08:41:31;;;;;;;78.03;32.60;;;-0.50;73.10;;;;;;4962495;28;115054;-80
2022/11/30 08:43:58;;;;;;;96.28;35.63;;;-0.50;73.10;;;;;;4948295;28;115099;-81
2022/11/30 08:46:26;;;;;;;95.82;39.05;;;-0.40;73.20;;;;;;4966792;28;115742;-81
2022/11/30 08:49:15;;;;;;;93.22;41.17;;;-0.30;73.20;;;;;;4964873;28;114548;-83
2022/11/30 08:51:59;;;;;;;92.43;38.17;;;-0.20;73.10;;;;;;4968921;28;114793;-82
2022/11/30 08:54:46;;;;;;;95.95;39.90;;;-0.10;72.70;;;;;;4960608;28;116336;-83
2022/11/30 08:57:16;;;;;;;83.32;36.13;;;-0.20;72.70;;;;;;4973550;28;114636;-82
2022/11/30 08:59:43;;;;;;;92.93;39.17;;;-0.10;72.70;;;;;;4966091;28;114469;-82
2022/11/30 09:02:13;;;;;;;96.57;39.30;;;-0.10;72.60;;;;;;4948044;28;115038;-82
2022/11/30 09:04:40;;;;;;;103.25;42.90;;;-0.10;72.80;;;;;;4962279;28;115346;-81
2022/11/30 09:07:08;;;;;;;89.60;36.60;;;-0.10;72.40;;;;;;4961605;28;114925;-82
2022/11/30 09:09:36;;;;;;;90.82;35.38;;;-0.30;72.20;;;;;;4965272;28;114576;-82
2022/11/30 09:12:03;;;;;;;98.32;37.78;;;-0.30;72.60;;;;;;4961416;28;114469;-82
2022/11/30 09:14:33;;;;;;;93.53;36.97;;;-0.30;72.70;;;;;;4964960;28;117850;-84
2022/11/30 09:17:00;;;;;;;90.55;36.33;;;-0.30;72.90;;;;;;4966209;28;114563;-85
2022/11/30 09:19:27;;;;;;;93.57;37.53;;;-0.30;73.00;;;;;;4973338;28;117073;-84
2022/11/30 09:21:54;;;;;;;92.10;37.13;;;-0.20;72.80;;;;;;4966399;28;114390;-84
2022/11/30 09:24:21;;;;;;;88.40;36.50;;;-0.10;72.70;;;;;;4968381;28;115021;-84
2022/11/30 09:26:48;;;;;;;91.75;40.03;;;-0.10;72.60;;;;;;4965995;28;118469;-84
2022/11/30 09:29:43;;;;;;;81.00;35.15;;;-0.20;72.40;;;;;;4967232;28;114532;-83
2022/11/30 09:32:10;;;;;;;90.78;36.85;;;-0.20;72.30;;;;;;4967412;28;114489;-84
2022/11/30 09:34:37;;;;;;;87.18;37.38;;;-0.30;72.30;;;;;;4965786;28;116416;-83
2022/11/30 09:37:04;;;;;;;89.88;37.60;;;-0.30;72.50;;;;;;4968172;28;117165;-84
2022/11/30 09:39:31;;;;;;;86.28;37.30;;;-0.30;72.60;;;;;;4972571;28;116610;-84
2022/11/30 09:42:23;;;;;;;77.38;31.02;;;-0.20;72.50;;;;;;4971423;28;114353;-82
2022/11/30 09:44:58;;;;;;;83.25;33.65;;;-0.30;72.40;;;;;;4953920;28;115060;-83
2022/11/30 09:48:07;;;;;;;86.72;36.08;;;-0.40;72.20;;;;;;4967320;28;115924;-83
2022/11/30 09:50:42;;;;;;;84.40;33.83;;;-0.40;72.40;;;;;;4968647;28;115759;-82
2022/11/30 09:53:40;;;;;;;87.90;34.63;;;-0.40;72.50;;;;;;4952366;28;114532;-82
2022/11/30 09:56:26;;;;;;;86.95;33.47;;;-0.40;72.70;;;;;;4954219;28;115642;-82
2022/11/30 09:59:19;;;;;;;87.45;34.55;;;-0.40;72.70;;;;;;4968851;28;115491;-83
2022/11/30 10:01:47;;;;;;;93.28;38.97;;;-0.30;73.00;;;;;;4950649;28;114614;-83
2022/11/30 10:04:27;;;;;;;97.57;41.55;;;-0.30;72.90;;;;;;4967657;28;114791;-82
2022/11/30 10:07:25;;;;;;;91.57;38.97;;;-0.20;72.70;;;;;;4969561;28;115107;-82
2022/11/30 10:10:22;;;;;;;91.25;37.30;;;-0.10;72.60;;;;;;4976354;28;118830;-83
2022/11/30 10:13:27;;;;;;;85.20;37.63;;;-0.10;72.70;;;;;;4942664;28;114440;-84
2022/11/30 10:16:20;;;;;;;88.93;36.47;;;-0.10;72.60;;;;;;4966187;28;114512;-83
2022/11/30 10:19:06;;;;;;;98.20;38.95;;;-0.10;72.50;;;;;;4964491;28;115097;-83
2022/11/30 10:22:08;;;;;;;87.68;36.88;;;-0.10;72.40;;;;;;4966672;28;115205;-82
2022/11/30 10:25:16;;;;;;;93.53;35.92;;;-0.10;72.60;;;;;;4963518;28;118706;-82
2022/11/30 10:27:51;;;;;;;94.93;35.55;;;0.00;72.60;;;;;;4961514;28;114517;-82
2022/11/30 10:30:24;;;;;;;90.00;36.53;;;0.00;72.50;;;;;;4949548;28;118658;-82
2022/11/30 10:32:54;;;;;;;85.97;38.65;;;0.10;72.50;;;;;;4965625;28;114638;-82
2022/11/30 10:35:41;;;;;;;97.47;41.72;;;0.10;72.40;;;;;;4966647;28;114741;-82
2022/11/30 10:38:32;;;;;;;91.65;40.33;;;0.10;72.60;;;;;;4951072;28;114466;-82
2022/11/30 10:41:20;;;;;;;92.82;38.00;;;0.20;72.80;;;;;;4949441;28;116025;-82
2022/11/30 10:44:01;;;;;;;95.78;38.58;;;0.20;72.60;;;;;;4947992;28;114657;-82
2022/11/30 10:46:36;;;;;;;105.53;41.35;;;0.20;72.40;;;;;;4932544;28;114687;-82
2022/11/30 10:49:11;;;;;;;104.20;40.67;;;0.20;72.40;;;;;;4966110;28;114437;-83
2022/11/30 10:51:40;;;;;;;101.97;39.67;;;0.20;72.50;;;;;;4965129;28;115011;-83
2022/11/30 10:54:14;;;;;;;95.53;39.15;;;0.30;72.50;;;;;;4932519;28;115659;-82
2022/11/30 10:56:41;;;;;;;98.50;40.95;;;0.40;72.70;;;;;;4966097;28;114928;-83
2022/11/30 10:59:37;;;;;;;99.57;37.75;;;0.50;72.40;;;;;;4965940;28;115830;-83
2022/11/30 11:02:37;;;;;;;91.47;36.13;;;0.60;72.30;;;;;;4965014;28;115805;-83
2022/11/30 11:05:22;;;;;;;83.80;33.95;;;0.60;72.10;;;;;;4966307;28;114582;-83
2022/11/30 11:08:16;;;;;;;83.22;36.45;;;0.60;71.90;;;;;;4956903;28;115592;-83
2022/11/30 11:10:46;;;;;;;88.57;35.90;;;0.50;72.10;;;;;;4981529;28;114460;-83
2022/11/30 11:13:37;;;;;;;95.30;39.33;;;0.50;72.10;;;;;;4945127;28;115198;-83
2022/11/30 11:16:08;;;;;;;93.32;38.45;;;0.50;72.20;;;;;;4964865;28;114588;-83
2022/11/30 11:18:50;;;;;;;86.50;36.78;;;0.60;71.80;;;;;;4946599;28;114573;-83
2022/11/30 11:21:18;;;;;;;91.13;38.45;;;0.60;72.00;;;;;;4962650;28;114487;-83
2022/11/30 11:23:45;;;;;;;93.22;40.30;;;0.70;72.00;;;;;;4945098;28;115267;-83
2022/11/30 11:26:24;;;;;;;92.10;38.67;;;0.80;71.90;;;;;;4947949;28;116010;-83
2022/11/30 11:28:52;;;;;;;102.53;40.85;;;0.90;71.50;;;;;;4965338;28;114371;-83
2022/11/30 11:31:35;;;;;;;95.05;39.90;;;0.80;71.50;;;;;;4930227;28;114579;-83
2022/11/30 11:34:04;;;;;;;95.68;39.58;;;0.80;71.70;;;;;;4964686;28;115201;-83
2022/11/30 11:36:32;;;;;;;93.28;37.35;;;0.80;71.70;;;;;;4944797;28;114968;-83
2022/11/30 11:39:00;;;;;;;90.28;36.95;;;0.80;71.50;;;;;;4963100;28;114518;-83
2022/11/30 11:41:32;;;;;;;89.68;38.63;;;0.70;71.30;;;;;;4965463;28;115370;-82
2022/11/30 11:44:08;;;;;;;87.40;34.55;;;0.70;71.30;;;;;;4945326;28;115706;-82
2022/11/30 11:46:55;;;;;;;98.57;37.20;;;0.50;71.40;;;;;;4965649;28;114652;-82
2022/11/30 11:49:31;;;;;;;90.10;34.50;;;0.40;71.60;;;;;;4957856;28;116025;-83
2022/11/30 11:52:07;;;;;;;90.40;37.40;;;0.30;71.80;;;;;;4986350;28;114372;-84
2022/11/30 11:54:53;;;;;;;88.22;34.50;;;0.20;71.80;;;;;;4970273;28;115081;-83
2022/11/30 11:57:40;;;;;;;98.50;39.08;;;0.30;72.00;;;;;;4967570;28;114689;-83
2022/11/30 12:00:18;;;;;;;86.05;34.45;;;0.30;72.00;;;;;;4931695;28;114525;-84
2022/11/30 12:03:07;;;;;;;100.60;40.00;;;0.30;72.30;;;;;;4965012;28;114319;-82
2022/11/30 12:06:18;;;;;;;100.95;36.67;;;0.30;72.20;;;;;;4958890;28;115473;-85
2022/11/30 12:08:58;;;;;;;97.32;36.22;;;0.30;72.20;;;;;;4913107;28;115129;-83
2022/11/30 12:11:38;;;;;;;90.15;35.95;;;0.30;72.10;;;;;;4949018;28;114445;-83
2022/11/30 12:14:13;;;;;;;99.10;38.85;;;0.20;72.20;;;;;;4933498;28;114624;-84
2022/11/30 12:16:58;;;;;;;104.43;40.42;;;0.20;72.20;;;;;;4950369;28;118093;-83
2022/11/30 12:19:44;;;;;;;101.28;37.15;;;0.30;72.20;;;;;;4964801;28;114963;-82
2022/11/30 12:22:55;;;;;;;84.68;31.92;;;0.10;72.20;;;;;;4964249;28;114682;-83
2022/11/30 12:25:41;;;;;;;81.20;33.33;;;0.10;72.30;;;;;;4965336;28;115461;-83
2022/11/30 12:28:25;;;;;;;80.65;32.92;;;0.10;72.30;;;;;;4947504;28;116111;-83
2022/11/30 12:31:16;;;;;;;75.63;31.20;;;0.10;72.30;;;;;;4947169;28;114714;-84
2022/11/30 12:34:25;;;;;;;81.85;33.03;;;0.10;72.50;;;;;;4963642;28;114554;-83
2022/11/30 12:37:24;;;;;;;80.40;33.08;;;0.10;72.60;;;;;;4960728;28;114455;-83
2022/11/30 12:40:16;;;;;;;77.28;29.83;;;0.10;72.40;;;;;;4963521;28;116225;-83
2022/11/30 12:43:27;;;;;;;83.40;32.30;;;0.10;72.30;;;;;;4948713;28;115037;-82
2022/11/30 12:46:38;;;;;;;88.95;33.20;;;0.00;72.10;;;;;;4964508;28;114579;-84